Uppsala, Sweden

9:37 AM CEST on October 22, 2014 (GMT +0200)
Södertil | Change Station
CLOSE
Current Station
Personal Weather Station
Location: Sigtuna, STOCKHOLMS LäN
Elevation: 85 ft
Nearby Weather Stations

Elev 85 ft 59.62 °N, 17.75 °E | Updated 2 minutes ago

Mostly Cloudy
Mostly Cloudy
38.1 °F
Feels Like 33 °F
N
7.0
Wind Variable Wind from SE
Gusts 9.0 mph

Today
High -- | Low -- °F
--% Chance of Precip.
Yesterday
High -- | Low -- °F
Precip. -- in
7:45 AM 5:21 PM
Waning Crescent, 3% visible
Pressure 29.98 in
Visibility 6.2 miles
Clouds Mostly Cloudy 3200 ft
Windchill 33 °F
Dew Point 31 °F
Humidity 74%
Rainfall 0.00 in
Snow Depth Not available.
UV 0 out of 12
Pollen Not available.
Air Quality Not available.
Flu Activity Not available.
METAR ESSA 220720Z 11010KT 080V150 9999 BKN032 04/M02 Q1015 NOSIG

More Conditions Fewer Conditions

Pressure 29.98 in
Visibility 6.2 miles
Clouds Mostly Cloudy 3200 ft
Windchill 33 °F
Dew Point 31 °F
Humidity 74%
Rainfall 0.00 in
Snow Depth Not available.
UV 0 out of 12
Pollen Not available.
Air Quality Not available.
Flu Activity Not available.
METAR ESSA 220720Z 11010KT 080V150 9999 BKN032 04/M02 Q1015 NOSIG

More Conditions Fewer Conditions

10-Day Weather Forecast

Almanac

Astronomy

Oct. 22, 2014 Rise Set
Actual Time 7:45 AM CEST 5:21 PM CEST
Civil Twilight 7:02 AM CEST 6:04 PM CEST
Nautical Twilight 6:14 AM CEST 6:52 PM CEST
Astronomical Twilight 5:26 AM CEST 7:40 PM CEST
Moon 5:47 AM CEST 4:54 PM CEST
Length of Visible Light 11h 02m
Length of Day
9h 36m
Tomorrow will be 5m 17s shorter.
Waning Crescent, 3% of the Moon is Illuminated
Today
Waning Crescent
Oct 23
New
Oct 30
First Quarter
Nov 6
Full
Nov 14
Last Quarter

Yesterday's Extremes

Country Highs Country Lows

Community

WunderPhotos

Upload Photos

1,763,890 photos uploaded!

Nearby

Snow Depth

Not available.

Earthquake Activity

City Distance Mag. Time & Date
No recent earthquake activity has been reported nearby.
Minimum magnitude displayed is 2.5.

Coastal Water Temperatures

Place Temperature
No Stations Reporting

Nearby Weather Stations